Terminal Aerodrome Forecast
Issued by NWS Amarillo, TX

Home | Current Version | Previous Version | Text Only | Print | Product List | Glossary On
Versions: 1 2 3 4 5 6 7 8 9 10 11 12 13 14 15
762
FTUS44 KAMA 211208 AAA
TAFAMA
TAF AMD
KAMA 211208Z 2112/2212 20016KT 5SM BR SCT008
     FM211500 26015KT P6SM FEW250
     FM211900 34020G30KT P6SM BKN150
     FM220200 36010KT P6SM SKC=

USA.gov is the U.S. government's official web portal to all federal, state and local government web resources and services.